createdAt,value
2023-02-16T00:01:49.464Z,34.77
2023-02-16T00:06:42.693Z,35.70
2023-02-16T00:11:54.775Z,37.97
2023-02-16T00:16:49.306Z,38.63
2023-02-16T00:21:42.442Z,40.80
2023-02-16T00:26:36.389Z,40.67
2023-02-16T00:31:33.010Z,40.80
2023-02-16T00:36:27.782Z,41.07
2023-02-16T00:41:40.766Z,40.87
2023-02-16T00:46:34.547Z,40.03
2023-02-16T00:51:29.824Z,40.03
2023-02-16T00:56:23.706Z,36.93
2023-02-16T01:01:19.949Z,40.03
2023-02-16T01:06:31.387Z,37.63
2023-02-16T01:11:26.827Z,40.47
2023-02-16T01:16:23.207Z,40.83
2023-02-16T01:21:16.715Z,40.67
2023-02-16T01:26:16.178Z,37.17
2023-02-16T01:31:14.757Z,29.10
2023-02-16T01:36:21.089Z,30.57
2023-02-16T01:41:23.675Z,32.70
2023-02-16T01:46:22.680Z,32.87
2023-02-16T01:51:20.781Z,32.33
2023-02-16T01:56:22.713Z,43.97
2023-02-16T02:01:51.846Z,37.03
2023-02-16T02:06:48.258Z,28.60
2023-02-16T02:11:47.288Z,25.23
2023-02-16T02:16:40.739Z,28.20
2023-02-16T02:22:31.132Z,28.67
2023-02-16T02:27:27.398Z,25.77
2023-02-16T02:32:29.262Z,26.63
2023-02-16T02:37:30.257Z,26.07
2023-02-16T02:42:34.144Z,26.40
2023-02-16T02:47:39.634Z,26.97
2023-02-16T02:52:35.937Z,26.13
2023-02-16T02:57:53.398Z,31.00
2023-02-16T03:02:50.709Z,33.73
2023-02-16T03:07:48.556Z,28.03
2023-02-16T03:12:46.232Z,26.97
2023-02-16T03:18:00.289Z,27.30
2023-02-16T03:23:10.782Z,23.33
2023-02-16T03:28:25.941Z,24.70
2023-02-16T03:33:19.964Z,25.33
2023-02-16T03:38:13.372Z,25.10
2023-02-16T03:43:09.563Z,26.50
2023-02-16T03:48:04.164Z,26.73
2023-02-16T03:53:07.173Z,25.17
2023-02-16T03:58:00.989Z,23.17
2023-02-16T04:02:55.787Z,24.37
2023-02-16T04:07:48.897Z,23.57
2023-02-16T04:12:42.024Z,23.77
2023-02-16T04:17:35.197Z,26.53
2023-02-16T04:22:31.179Z,24.67
2023-02-16T04:27:24.565Z,24.67
2023-02-16T04:32:17.940Z,23.70
2023-02-16T04:37:11.106Z,22.80
2023-02-16T04:42:06.085Z,24.80
2023-02-16T04:46:59.464Z,24.33
2023-02-16T04:51:52.773Z,27.97
2023-02-16T04:56:46.373Z,28.80
2023-02-16T05:01:41.259Z,27.10
2023-02-16T05:06:34.630Z,28.07
2023-02-16T05:11:45.345Z,29.97
2023-02-16T05:16:40.227Z,30.90
2023-02-16T05:21:33.585Z,40.17
2023-02-16T05:26:27.073Z,36.70
2023-02-16T05:31:22.360Z,35.80
2023-02-16T05:36:17.302Z,35.47
2023-02-16T05:41:10.780Z,43.90
2023-02-16T05:46:09.008Z,43.43
2023-02-16T05:51:02.744Z,42.43
2023-02-16T05:55:57.771Z,37.70
2023-02-16T06:00:51.175Z,32.50
2023-02-16T06:05:44.643Z,39.77
2023-02-16T06:10:38.191Z,35.83
2023-02-16T06:15:35.902Z,39.03
2023-02-16T06:20:29.278Z,34.80
2023-02-16T06:25:22.609Z,42.07
2023-02-16T06:30:16.234Z,46.20
2023-02-16T06:35:11.111Z,52.70
2023-02-16T06:40:04.755Z,64.23
2023-02-16T06:44:58.284Z,80.93
2023-02-16T06:49:51.602Z,74.17
2023-02-16T06:54:46.786Z,86.30
2023-02-16T06:59:40.788Z,73.70
2023-02-16T07:04:34.092Z,69.93
2023-02-16T07:09:27.937Z,67.70
2023-02-16T07:14:23.295Z,62.10
2023-02-16T07:19:16.757Z,63.07
2023-02-16T07:24:10.226Z,68.73
2023-02-16T07:29:03.647Z,68.73
2023-02-16T07:33:58.622Z,58.77
2023-02-16T07:38:52.006Z,45.93
2023-02-16T07:43:45.637Z,37.63
2023-02-16T07:48:38.923Z,40.23
2023-02-16T07:53:33.843Z,40.47
2023-02-16T07:58:29.311Z,37.83
2023-02-16T08:03:23.658Z,37.10
2023-02-16T08:08:19.078Z,35.30
2023-02-16T08:13:15.108Z,32.47
2023-02-16T08:18:08.934Z,32.53
2023-02-16T08:23:02.533Z,31.00
2023-02-16T08:27:55.805Z,28.63
2023-02-16T08:32:51.944Z,27.73
2023-02-16T08:37:46.102Z,28.70
2023-02-16T08:42:42.094Z,27.10
2023-02-16T08:47:41.926Z,27.60
2023-02-16T08:52:41.354Z,27.10
2023-02-16T08:57:49.268Z,25.93
2023-02-16T09:02:58.767Z,27.00
2023-02-16T09:08:04.886Z,29.43
2023-02-16T09:13:15.167Z,29.47
2023-02-16T09:18:19.892Z,26.75
2023-02-16T09:23:32.000Z,26.02
2023-02-16T09:29:19.794Z,26.52
2023-02-16T09:34:19.077Z,25.42
2023-02-16T09:39:14.068Z,25.33
2023-02-16T09:44:18.000Z,25.17
2023-02-16T09:49:25.227Z,25.20
2023-02-16T09:54:30.960Z,23.13
2023-02-16T09:59:39.377Z,23.17
2023-02-16T10:04:44.238Z,23.05
2023-02-16T10:09:41.872Z,24.85
2023-02-16T10:14:41.425Z,24.70
2023-02-16T10:19:40.595Z,25.38
2023-02-16T10:24:45.470Z,26.55
2023-02-16T10:29:38.720Z,27.45
2023-02-16T10:34:46.853Z,27.75
2023-02-16T10:39:47.837Z,27.50
2023-02-16T10:44:47.268Z,28.33
2023-02-16T10:49:50.711Z,29.17
2023-02-16T10:54:45.412Z,27.77
2023-02-16T10:59:43.722Z,26.40
2023-02-16T11:04:39.971Z,26.52
2023-02-16T11:09:33.718Z,26.73
2023-02-16T11:14:31.332Z,26.30
2023-02-16T11:19:26.932Z,25.25
2023-02-16T11:24:28.044Z,25.92
2023-02-16T11:29:21.829Z,23.70
2023-02-16T11:34:33.012Z,22.75
2023-02-16T11:39:30.943Z,23.30
2023-02-16T11:44:28.803Z,24.33
2023-02-16T11:49:31.740Z,22.00
2023-02-16T11:54:25.152Z,23.73
2023-02-16T11:59:20.793Z,22.35
2023-02-16T12:04:26.612Z,21.33
2023-02-16T12:09:31.918Z,22.38
2023-02-16T12:14:38.725Z,24.30
2023-02-16T12:19:42.014Z,20.88
2023-02-16T12:25:01.841Z,22.17
2023-02-16T12:30:34.145Z,21.50
2023-02-16T12:35:49.908Z,21.73
2023-02-16T12:41:05.043Z,21.23
2023-02-16T12:46:09.005Z,21.00
2023-02-16T12:51:08.842Z,22.65
2023-02-16T12:56:35.846Z,21.60
2023-02-16T13:01:52.614Z,21.42
2023-02-16T13:07:01.186Z,20.17
2023-02-16T13:12:06.883Z,20.88
2023-02-16T13:17:14.437Z,21.48
2023-02-16T13:22:40.333Z,23.17
2023-02-16T13:27:51.488Z,21.15
2023-02-16T13:33:05.589Z,19.65
2023-02-16T13:39:34.047Z,20.73
2023-02-16T13:44:08.834Z,19.77
2023-02-16T13:49:04.796Z,22.70
2023-02-16T13:54:00.870Z,21.83
2023-02-16T13:58:59.157Z,21.98
2023-02-16T14:03:56.075Z,22.48
2023-02-16T14:09:31.210Z,22.45
2023-02-16T14:14:40.048Z,23.08
2023-02-16T14:19:41.038Z,20.40
2023-02-16T14:24:39.917Z,19.80
2023-02-16T14:29:39.351Z,20.48
2023-02-16T14:34:41.417Z,21.65
2023-02-16T14:39:43.822Z,21.23
2023-02-16T14:45:03.750Z,22.33
2023-02-16T14:50:28.922Z,20.00
2023-02-16T14:55:55.493Z,20.90
2023-02-16T15:00:57.073Z,21.23
2023-02-16T15:06:02.345Z,20.58
2023-02-16T15:11:06.569Z,21.63
2023-02-16T15:16:15.304Z,21.17
2023-02-16T15:26:22.555Z,24.70
2023-02-16T15:31:26.255Z,23.70
2023-02-16T15:36:36.956Z,33.72
2023-02-16T15:46:33.250Z,41.05
2023-02-16T15:51:33.417Z,36.50
2023-02-16T15:56:39.840Z,35.88
2023-02-16T16:01:37.664Z,40.05
2023-02-16T16:06:37.216Z,37.88
2023-02-16T16:11:37.068Z,37.03
2023-02-16T16:16:36.490Z,33.92
2023-02-16T16:21:34.450Z,39.20
2023-02-16T16:26:29.546Z,41.25
2023-02-16T16:31:43.801Z,50.00
2023-02-16T16:36:41.244Z,53.60
2023-02-16T16:41:38.632Z,60.88
2023-02-16T16:46:33.691Z,64.10
2023-02-16T16:51:42.732Z,66.55
2023-02-16T16:56:38.492Z,66.72
2023-02-16T17:01:37.912Z,65.97
2023-02-16T17:06:32.692Z,72.40
2023-02-16T17:11:31.715Z,73.20
2023-02-16T17:16:28.825Z,78.68
2023-02-16T17:21:24.775Z,73.00
2023-02-16T17:26:21.399Z,74.60
2023-02-16T17:31:16.675Z,77.17
2023-02-16T17:36:15.441Z,79.57
2023-02-16T17:41:09.454Z,92.03
2023-02-16T17:46:06.721Z,106.13
2023-02-16T17:51:01.941Z,107.20
2023-02-16T17:55:58.654Z,116.97
2023-02-16T18:00:52.334Z,130.97
2023-02-16T18:05:46.035Z,140.17
2023-02-16T18:10:44.860Z,170.67
2023-02-16T18:15:38.676Z,164.87
2023-02-16T18:20:32.004Z,172.33
2023-02-16T18:25:25.407Z,168.00
2023-02-16T18:30:20.391Z,151.60
2023-02-16T18:35:14.438Z,149.00
2023-02-16T18:40:11.071Z,144.83
2023-02-16T18:45:04.951Z,135.17
2023-02-16T18:49:59.646Z,138.47
2023-02-16T18:54:53.166Z,139.43
2023-02-16T18:59:46.455Z,120.50
2023-02-16T19:04:39.789Z,93.97
2023-02-16T19:09:34.679Z,79.17
2023-02-16T19:14:28.052Z,72.90
2023-02-16T19:19:21.487Z,67.90
2023-02-16T19:24:15.144Z,65.37
2023-02-16T19:29:09.829Z,68.70
2023-02-16T19:34:03.947Z,68.80
2023-02-16T19:38:57.554Z,60.47
2023-02-16T19:43:51.282Z,56.00
2023-02-16T19:48:46.510Z,58.90
2023-02-16T19:53:43.379Z,51.57
2023-02-16T19:58:37.057Z,53.73
2023-02-16T20:03:32.322Z,52.90
2023-02-16T20:08:43.406Z,66.57
2023-02-16T20:13:37.350Z,61.00
2023-02-16T20:18:31.485Z,49.40
2023-02-16T20:23:24.812Z,50.63
2023-02-16T20:28:22.335Z,51.90
2023-02-16T20:33:18.313Z,62.27
2023-02-16T20:38:11.796Z,54.43
2023-02-16T20:43:05.530Z,55.47
2023-02-16T20:48:00.373Z,52.27
2023-02-16T20:52:54.692Z,49.80
2023-02-16T20:57:47.931Z,46.47
2023-02-16T21:02:41.566Z,40.63
2023-02-16T21:07:36.364Z,44.30
2023-02-16T21:12:30.006Z,46.70
2023-02-16T21:17:23.640Z,44.77
2023-02-16T21:22:16.968Z,39.33
2023-02-16T21:27:15.010Z,39.40
2023-02-16T21:32:08.844Z,38.70
2023-02-16T21:37:02.078Z,39.63
2023-02-16T21:41:55.443Z,42.60
2023-02-16T21:46:50.089Z,40.77
2023-02-16T21:51:45.422Z,52.93
2023-02-16T21:56:41.009Z,58.60
2023-02-16T22:01:36.214Z,46.70
2023-02-16T22:06:33.601Z,40.77
2023-02-16T22:11:29.468Z,37.30
2023-02-16T22:16:23.252Z,39.57
2023-02-16T22:21:17.452Z,38.27
2023-02-16T22:26:22.530Z,39.57
2023-02-16T22:31:17.709Z,41.17
2023-02-16T22:36:15.160Z,45.57
2023-02-16T22:41:09.339Z,42.00
2023-02-16T22:46:08.842Z,41.13
2023-02-16T22:51:03.400Z,42.13
2023-02-16T22:55:59.301Z,39.00
2023-02-16T23:00:53.177Z,43.53
2023-02-16T23:05:50.361Z,44.23
2023-02-16T23:11:00.045Z,46.20
2023-02-16T23:15:53.472Z,43.60
2023-02-16T23:20:48.141Z,43.43
2023-02-16T23:25:46.019Z,49.50
2023-02-16T23:30:43.056Z,45.67
2023-02-16T23:35:37.974Z,48.97
2023-02-16T23:40:32.784Z,41.53
2023-02-16T23:45:26.015Z,37.53
2023-02-16T23:50:21.476Z,37.40
2023-02-16T23:55:15.253Z,37.87
